createdAt,value
2019-06-26T00:00:16.110Z,98.90
2019-06-26T00:02:56.689Z,99.94
2019-06-26T00:05:30.924Z,100.00
2019-06-26T00:07:59.271Z,100.00
2019-06-26T00:10:31.484Z,100.00
2019-06-26T00:13:05.611Z,100.00
2019-06-26T00:15:45.151Z,100.00
2019-06-26T00:18:15.099Z,100.00
2019-06-26T00:20:47.595Z,100.00
2019-06-26T00:23:20.049Z,100.00
2019-06-26T00:25:52.311Z,100.00
2019-06-26T00:28:27.716Z,100.00
2019-06-26T00:31:01.920Z,100.00
2019-06-26T00:33:34.352Z,100.00
2019-06-26T00:36:08.127Z,100.00
2019-06-26T00:38:41.907Z,100.00
2019-06-26T00:41:23.073Z,100.00
2019-06-26T00:43:58.585Z,100.00
2019-06-26T00:46:35.623Z,100.00
2019-06-26T00:49:09.570Z,100.00
2019-06-26T00:51:43.522Z,100.00
2019-06-26T00:54:24.875Z,100.00
2019-06-26T00:57:04.187Z,100.00
2019-06-26T00:59:39.969Z,100.00
2019-06-26T01:02:18.381Z,100.00
2019-06-26T01:04:55.487Z,100.00
2019-06-26T01:07:31.123Z,100.00
2019-06-26T01:10:03.469Z,100.00
2019-06-26T01:12:36.040Z,100.00
2019-06-26T01:15:10.182Z,100.00
2019-06-26T01:17:42.522Z,100.00
2019-06-26T01:20:17.368Z,100.00
2019-06-26T01:22:50.820Z,100.00
2019-06-26T01:25:23.119Z,100.00
2019-06-26T01:27:55.303Z,100.00
2019-06-26T01:30:27.722Z,100.00
2019-06-26T01:33:01.007Z,100.00
2019-06-26T01:35:33.250Z,100.00
2019-06-26T01:38:07.528Z,100.00
2019-06-26T01:40:40.011Z,100.00
2019-06-26T01:43:12.318Z,100.00
2019-06-26T01:45:44.801Z,100.00
2019-06-26T01:48:17.135Z,100.00
2019-06-26T01:50:53.958Z,100.00
2019-06-26T01:53:27.625Z,100.00
2019-06-26T01:56:03.252Z,100.00
2019-06-26T01:58:35.463Z,100.00
2019-06-26T02:01:09.895Z,100.00
2019-06-26T02:03:42.132Z,100.00
2019-06-26T02:06:17.196Z,100.00
2019-06-26T02:08:53.522Z,100.00
2019-06-26T02:11:26.229Z,100.00
2019-06-26T02:14:43.976Z,100.00
2019-06-26T02:17:39.677Z,100.00
2019-06-26T02:19:59.151Z,100.00
2019-06-26T02:22:34.705Z,100.00
2019-06-26T02:25:12.304Z,100.00
2019-06-26T02:27:50.752Z,100.00
2019-06-26T02:30:35.902Z,100.00
2019-06-26T02:33:21.432Z,100.00
2019-06-26T02:35:49.640Z,100.00
2019-06-26T02:38:38.542Z,100.00
2019-06-26T02:41:19.623Z,100.00
2019-06-26T02:44:12.263Z,100.00
2019-06-26T02:46:54.170Z,100.00
2019-06-26T02:49:40.416Z,100.00
2019-06-26T02:52:24.847Z,100.00
2019-06-26T02:58:25.092Z,100.00
2019-06-26T03:04:22.919Z,100.00
2019-06-26T03:07:26.056Z,100.00
2019-06-26T03:09:59.167Z,100.00
2019-06-26T03:12:32.811Z,100.00
2019-06-26T03:15:09.343Z,100.00
2019-06-26T03:17:54.763Z,100.00
2019-06-26T03:20:15.647Z,100.00
2019-06-26T03:22:48.096Z,100.00
2019-06-26T03:25:20.339Z,100.00
2019-06-26T03:27:52.920Z,100.00
2019-06-26T03:30:25.384Z,100.00
2019-06-26T03:33:02.339Z,100.00
2019-06-26T03:35:44.636Z,100.00
2019-06-26T03:38:18.945Z,100.00
2019-06-26T03:40:55.367Z,100.00
2019-06-26T03:43:35.594Z,100.00
2019-06-26T03:46:41.577Z,100.00
2019-06-26T03:49:23.926Z,100.00
2019-06-26T03:52:07.390Z,100.00
2019-06-26T03:55:11.681Z,100.00
2019-06-26T03:57:56.327Z,100.00
2019-06-26T04:00:43.009Z,100.00
2019-06-26T04:03:23.537Z,100.00
2019-06-26T04:05:58.863Z,100.00
2019-06-26T04:08:48.530Z,100.00
2019-06-26T04:11:27.867Z,100.00
2019-06-26T04:14:05.602Z,100.00
2019-06-26T04:16:39.768Z,100.00
2019-06-26T04:19:24.407Z,100.00
2019-06-26T04:22:00.379Z,100.00
2019-06-26T04:24:34.101Z,100.00
2019-06-26T04:27:06.849Z,100.00
2019-06-26T04:29:39.301Z,100.00
2019-06-26T04:32:12.847Z,100.00
2019-06-26T04:34:46.798Z,100.00
2019-06-26T04:37:19.133Z,100.00
2019-06-26T04:39:52.965Z,100.00
2019-06-26T04:42:26.365Z,100.00
2019-06-26T04:45:00.194Z,100.00
2019-06-26T04:47:34.512Z,100.00
2019-06-26T04:50:08.290Z,100.00
2019-06-26T04:52:40.977Z,100.00
2019-06-26T04:55:13.542Z,100.00
2019-06-26T04:57:45.878Z,100.00
2019-06-26T05:00:21.704Z,100.00
2019-06-26T05:02:55.470Z,100.00
2019-06-26T05:05:39.132Z,100.00
2019-06-26T05:08:03.239Z,100.00
2019-06-26T05:10:35.489Z,100.00
2019-06-26T05:13:07.893Z,100.00
2019-06-26T05:15:40.431Z,100.00
2019-06-26T05:18:12.844Z,100.00
2019-06-26T05:20:45.889Z,100.00
2019-06-26T05:23:18.069Z,100.00
2019-06-26T05:25:50.398Z,100.00
2019-06-26T05:28:23.657Z,100.00
2019-06-26T05:30:56.270Z,100.00
2019-06-26T05:33:28.599Z,100.00
2019-06-26T05:36:02.424Z,100.00
2019-06-26T05:38:40.162Z,100.00
2019-06-26T05:41:18.180Z,100.00
2019-06-26T05:43:50.020Z,100.00
2019-06-26T05:46:30.920Z,100.00
2019-06-26T05:48:56.583Z,100.00
2019-06-26T05:51:28.844Z,100.00
2019-06-26T05:54:02.642Z,97.96
2019-06-26T05:56:45.655Z,93.91
2019-06-26T05:59:19.814Z,90.79
2019-06-26T06:01:59.462Z,82.82
2019-06-26T06:04:37.399Z,71.16
2019-06-26T06:07:11.412Z,60.12
2019-06-26T06:09:43.915Z,54.22
2019-06-26T06:12:16.003Z,52.11
2019-06-26T06:14:52.792Z,49.75
2019-06-26T06:17:24.951Z,46.63
2019-06-26T06:19:57.608Z,43.84
2019-06-26T06:22:29.730Z,40.26
2019-06-26T06:25:03.201Z,40.88
2019-06-26T06:27:39.059Z,43.53
2019-06-26T06:30:11.474Z,42.91
2019-06-26T06:32:44.129Z,42.46
2019-06-26T06:35:16.378Z,44.32
2019-06-26T06:37:48.552Z,40.85
2019-06-26T06:40:21.635Z,35.96
2019-06-26T06:42:54.230Z,35.55
2019-06-26T06:45:26.871Z,34.66
2019-06-26T06:47:59.072Z,35.19
2019-06-26T06:50:31.112Z,39.19
2019-06-26T06:53:03.572Z,43.02
2019-06-26T06:55:35.696Z,47.32
2019-06-26T06:58:07.803Z,51.29
2019-06-26T07:00:39.984Z,54.30
2019-06-26T07:03:12.154Z,58.13
2019-06-26T07:05:44.212Z,60.04
2019-06-26T07:08:16.270Z,62.22
2019-06-26T07:10:49.296Z,64.56
2019-06-26T07:13:21.778Z,67.15
2019-06-26T07:15:53.882Z,70.03
2019-06-26T07:18:25.930Z,72.06
2019-06-26T07:20:59.819Z,73.60
2019-06-26T07:23:34.490Z,76.36
2019-06-26T07:26:06.939Z,74.86
2019-06-26T07:28:39.028Z,71.40
2019-06-26T07:31:12.957Z,66.99
2019-06-26T07:33:45.119Z,61.67
2019-06-26T07:36:17.326Z,58.54
2019-06-26T07:38:52.169Z,56.67
2019-06-26T07:41:26.970Z,56.88
2019-06-26T07:43:59.045Z,57.97
2019-06-26T07:46:31.180Z,59.16
2019-06-26T07:49:03.483Z,62.98
2019-06-26T07:51:35.595Z,64.90
2019-06-26T07:54:07.636Z,67.66
2019-06-26T07:56:41.613Z,70.66
2019-06-26T07:59:13.685Z,73.48
2019-06-26T08:01:47.437Z,75.99
2019-06-26T08:04:19.516Z,77.42
2019-06-26T08:06:51.703Z,79.24
2019-06-26T08:09:23.908Z,80.36
2019-06-26T08:11:56.047Z,79.12
2019-06-26T08:14:28.152Z,78.20
2019-06-26T08:17:00.294Z,77.92
2019-06-26T08:19:32.353Z,74.67
2019-06-26T08:22:04.425Z,72.50
2019-06-26T08:24:36.457Z,72.21
2019-06-26T08:27:08.602Z,70.71
2019-06-26T08:29:40.691Z,67.93
2019-06-26T08:32:12.843Z,65.60
2019-06-26T08:34:45.816Z,64.20
2019-06-26T08:37:19.565Z,64.60
2019-06-26T08:39:51.717Z,65.16
2019-06-26T08:42:23.794Z,68.29
2019-06-26T08:44:56.007Z,68.79
2019-06-26T08:47:29.669Z,69.22
2019-06-26T08:50:02.020Z,69.39
2019-06-26T08:52:34.367Z,69.27
2019-06-26T08:55:06.931Z,70.42
2019-06-26T08:57:38.980Z,70.17
2019-06-26T09:00:11.891Z,71.70
2019-06-26T09:02:43.940Z,74.03
2019-06-26T09:05:16.093Z,73.68
2019-06-26T09:07:48.155Z,74.07
2019-06-26T09:10:20.435Z,73.29
2019-06-26T09:12:52.466Z,73.28
2019-06-26T09:15:24.586Z,72.88
2019-06-26T09:17:56.644Z,72.18
2019-06-26T09:20:35.868Z,68.57
2019-06-26T09:23:08.148Z,65.93
2019-06-26T09:25:40.213Z,65.35
2019-06-26T09:28:12.683Z,63.27
2019-06-26T09:30:44.761Z,62.43
2019-06-26T09:33:17.009Z,61.59
2019-06-26T09:35:49.104Z,62.82
2019-06-26T09:38:21.159Z,61.24
2019-06-26T09:40:53.377Z,60.83
2019-06-26T09:43:25.467Z,61.59
2019-06-26T09:45:57.507Z,60.27
2019-06-26T09:48:29.614Z,57.79
2019-06-26T09:51:01.852Z,54.73
2019-06-26T09:53:46.397Z,54.95
2019-06-26T09:56:09.570Z,53.62
2019-06-26T09:58:41.683Z,53.33
2019-06-26T10:01:13.829Z,52.78
2019-06-26T10:03:45.926Z,54.84
2019-06-26T10:06:19.107Z,55.90
2019-06-26T10:08:54.185Z,55.63
2019-06-26T10:11:25.055Z,54.45
2019-06-26T10:13:57.183Z,52.61
2019-06-26T10:16:29.301Z,50.72
2019-06-26T10:19:09.983Z,51.47
2019-06-26T10:21:37.137Z,53.39
2019-06-26T10:24:09.361Z,56.25
2019-06-26T10:26:41.855Z,56.80
2019-06-26T10:29:14.024Z,56.44
2019-06-26T10:31:46.522Z,54.92
2019-06-26T10:34:18.695Z,54.61
2019-06-26T10:36:50.957Z,54.54
2019-06-26T10:39:23.000Z,54.86
2019-06-26T10:41:55.374Z,55.32
2019-06-26T10:44:27.525Z,55.58
2019-06-26T10:46:59.630Z,56.67
2019-06-26T10:49:31.683Z,58.41
2019-06-26T10:52:04.455Z,58.87
2019-06-26T10:54:39.241Z,59.38
2019-06-26T10:57:12.177Z,59.96
2019-06-26T10:59:44.578Z,58.75
2019-06-26T11:02:18.355Z,56.25
2019-06-26T11:04:50.534Z,55.55
2019-06-26T11:07:22.561Z,53.89
2019-06-26T11:09:54.607Z,51.83
2019-06-26T11:12:27.390Z,50.32
2019-06-26T11:15:00.149Z,47.00
2019-06-26T11:17:33.323Z,45.06
2019-06-26T11:20:07.206Z,42.25
2019-06-26T11:22:39.305Z,40.55
2019-06-26T11:25:12.860Z,39.47
2019-06-26T11:27:44.967Z,38.56
2019-06-26T11:30:19.717Z,38.56
2019-06-26T11:32:51.783Z,39.98
2019-06-26T11:35:23.928Z,39.71
2019-06-26T11:37:56.192Z,41.20
2019-06-26T11:40:28.592Z,42.46
2019-06-26T11:43:00.792Z,43.77
2019-06-26T11:45:33.765Z,43.81
2019-06-26T11:48:06.528Z,43.63
2019-06-26T11:50:39.338Z,44.47
2019-06-26T11:53:11.618Z,44.40
2019-06-26T11:55:44.169Z,45.00
2019-06-26T11:58:16.294Z,45.03
2019-06-26T12:00:48.472Z,45.66
2019-06-26T12:03:20.644Z,49.15
2019-06-26T12:05:53.141Z,50.63
2019-06-26T12:08:26.959Z,53.27
2019-06-26T12:10:59.334Z,54.74
2019-06-26T12:13:33.466Z,56.34
2019-06-26T12:16:06.639Z,55.62
2019-06-26T12:18:40.423Z,55.47
2019-06-26T12:21:12.644Z,54.19
2019-06-26T12:23:44.875Z,51.69
2019-06-26T12:26:16.998Z,50.38
2019-06-26T12:28:49.174Z,49.36
2019-06-26T12:31:21.351Z,50.22
2019-06-26T12:33:53.441Z,50.73
2019-06-26T12:36:26.718Z,52.44
2019-06-26T12:38:58.906Z,52.39
2019-06-26T12:41:31.065Z,50.73
2019-06-26T12:44:04.487Z,50.10
2019-06-26T12:46:36.580Z,49.81
2019-06-26T12:49:08.667Z,48.78
2019-06-26T12:51:41.009Z,49.62
2019-06-26T12:54:13.102Z,49.14
2019-06-26T12:56:45.622Z,49.97
2019-06-26T12:59:17.677Z,49.43
2019-06-26T13:01:50.025Z,49.19
2019-06-26T13:04:22.168Z,51.07
2019-06-26T13:06:54.481Z,49.89
2019-06-26T13:09:28.272Z,49.95
2019-06-26T13:12:00.562Z,50.03
2019-06-26T13:14:33.151Z,50.29
2019-06-26T13:17:06.778Z,50.28
2019-06-26T13:19:39.411Z,49.43
2019-06-26T13:22:11.701Z,48.50
2019-06-26T13:24:44.277Z,47.86
2019-06-26T13:27:17.715Z,48.10
2019-06-26T13:29:49.881Z,48.33
2019-06-26T13:32:22.046Z,48.60
2019-06-26T13:34:54.190Z,49.93
2019-06-26T13:37:27.435Z,49.50
2019-06-26T13:39:59.606Z,51.00
2019-06-26T13:42:32.321Z,51.49
2019-06-26T13:45:04.626Z,50.70
2019-06-26T13:47:36.789Z,51.94
2019-06-26T13:50:08.898Z,52.54
2019-06-26T13:52:40.824Z,53.57
2019-06-26T13:55:12.920Z,53.73
2019-06-26T13:57:44.854Z,54.18
2019-06-26T14:00:17.646Z,54.11
2019-06-26T14:02:49.616Z,54.21
2019-06-26T14:05:22.579Z,52.42
2019-06-26T14:07:54.544Z,51.00
2019-06-26T14:10:27.007Z,50.33
2019-06-26T14:12:58.945Z,49.86
2019-06-26T14:15:30.937Z,49.92
2019-06-26T14:18:02.942Z,50.75
2019-06-26T14:20:34.906Z,51.74
2019-06-26T14:23:06.896Z,51.75
2019-06-26T14:25:39.028Z,51.58
2019-06-26T14:28:11.020Z,52.66
2019-06-26T14:30:44.712Z,53.08
2019-06-26T14:33:16.634Z,52.64
2019-06-26T14:35:48.592Z,52.39
2019-06-26T14:38:20.624Z,52.41
2019-06-26T14:40:53.151Z,51.41
2019-06-26T14:43:26.965Z,53.47
2019-06-26T14:45:58.968Z,54.10
2019-06-26T14:48:31.046Z,52.83
2019-06-26T14:51:04.551Z,51.61
2019-06-26T14:53:36.868Z,50.94
2019-06-26T14:56:09.020Z,52.20
2019-06-26T14:58:41.069Z,54.77
2019-06-26T15:01:13.080Z,53.87
2019-06-26T15:03:45.063Z,49.81
2019-06-26T15:06:17.372Z,48.62
2019-06-26T15:08:49.500Z,47.97
2019-06-26T15:11:21.519Z,47.88
2019-06-26T15:13:53.822Z,49.47
2019-06-26T15:16:25.951Z,49.28
2019-06-26T15:18:58.154Z,49.87
2019-06-26T15:21:30.420Z,48.08
2019-06-26T15:24:03.292Z,47.05
2019-06-26T15:26:35.456Z,45.88
2019-06-26T15:29:08.167Z,44.84
2019-06-26T15:31:41.664Z,44.58
2019-06-26T15:34:13.843Z,44.64
2019-06-26T15:36:48.976Z,45.05
2019-06-26T15:39:21.362Z,47.07
2019-06-26T15:41:55.235Z,47.41
2019-06-26T15:44:27.433Z,47.45
2019-06-26T15:46:59.808Z,46.46
2019-06-26T15:49:32.056Z,46.56
2019-06-26T15:52:14.516Z,48.09
2019-06-26T15:54:38.552Z,48.09
2019-06-26T15:57:14.927Z,47.78
2019-06-26T15:59:47.031Z,50.90
2019-06-26T16:02:19.099Z,52.25
2019-06-26T16:04:51.537Z,52.13
2019-06-26T16:07:23.687Z,52.30
2019-06-26T16:09:55.701Z,53.02
2019-06-26T16:12:27.818Z,54.10
2019-06-26T16:14:59.859Z,56.46
2019-06-26T16:17:41.967Z,55.26
2019-06-26T16:20:14.180Z,54.55
2019-06-26T16:22:46.390Z,54.52
2019-06-26T16:25:18.591Z,53.94
2019-06-26T16:28:04.287Z,53.40
2019-06-26T16:30:26.470Z,52.21
2019-06-26T16:32:58.428Z,52.86
2019-06-26T16:35:30.798Z,53.37
2019-06-26T16:38:04.537Z,53.46
2019-06-26T16:40:37.641Z,54.69
2019-06-26T16:43:09.708Z,54.98
2019-06-26T16:45:41.685Z,54.15
2019-06-26T16:48:16.193Z,53.39
2019-06-26T16:50:48.282Z,53.01
2019-06-26T16:53:22.299Z,53.11
2019-06-26T16:55:54.358Z,54.60
2019-06-26T16:58:28.005Z,54.34
2019-06-26T17:01:00.198Z,55.76
2019-06-26T17:03:34.512Z,57.36
2019-06-26T17:06:07.615Z,56.84
2019-06-26T17:08:41.406Z,55.28
2019-06-26T17:11:15.581Z,57.07
2019-06-26T17:13:49.770Z,57.54
2019-06-26T17:16:25.537Z,55.68
2019-06-26T17:18:58.640Z,55.60
2019-06-26T17:21:30.989Z,56.46
2019-06-26T17:24:05.124Z,54.71
2019-06-26T17:26:37.780Z,53.79
2019-06-26T17:29:11.870Z,56.47
2019-06-26T17:31:44.125Z,56.35
2019-06-26T17:34:16.936Z,57.49
2019-06-26T17:36:49.999Z,56.07
2019-06-26T17:39:24.265Z,56.43
2019-06-26T17:41:56.744Z,59.11
2019-06-26T17:44:29.195Z,59.37
2019-06-26T17:47:05.287Z,57.92
2019-06-26T17:49:36.222Z,57.92
2019-06-26T17:52:08.821Z,59.44
2019-06-26T17:54:41.128Z,58.74
2019-06-26T17:57:15.227Z,58.20
2019-06-26T17:59:50.427Z,57.31
2019-06-26T18:02:22.736Z,56.52
2019-06-26T18:04:57.080Z,54.65
2019-06-26T18:07:29.469Z,54.96
2019-06-26T18:10:02.822Z,54.97
2019-06-26T18:12:39.025Z,54.08
2019-06-26T18:15:13.069Z,54.85
2019-06-26T18:17:47.276Z,53.52
2019-06-26T18:20:26.434Z,53.32
2019-06-26T18:23:07.409Z,54.17
2019-06-26T18:25:36.585Z,56.37
2019-06-26T18:28:08.810Z,57.82
2019-06-26T18:30:40.840Z,58.33
2019-06-26T18:33:13.286Z,57.83
2019-06-26T18:35:50.220Z,58.91
2019-06-26T18:38:48.918Z,59.24
2019-06-26T18:41:23.163Z,61.18
2019-06-26T18:43:55.093Z,62.60
2019-06-26T18:46:27.198Z,63.98
2019-06-26T18:48:59.146Z,66.73
2019-06-26T18:51:31.103Z,67.20
2019-06-26T18:54:03.388Z,67.48
2019-06-26T18:56:35.370Z,68.43
2019-06-26T18:59:07.464Z,69.73
2019-06-26T19:01:43.058Z,70.28
2019-06-26T19:04:15.025Z,71.19
2019-06-26T19:06:50.245Z,71.79
2019-06-26T19:09:24.213Z,72.80
2019-06-26T19:11:57.537Z,73.90
2019-06-26T19:14:29.494Z,75.12
2019-06-26T19:17:01.857Z,76.07
2019-06-26T19:19:33.956Z,76.89
2019-06-26T19:22:07.627Z,78.01
2019-06-26T19:24:40.133Z,79.43
2019-06-26T19:27:12.160Z,80.67
2019-06-26T19:29:44.666Z,81.64
2019-06-26T19:32:16.682Z,81.80
2019-06-26T19:34:50.065Z,81.27
2019-06-26T19:37:22.219Z,80.98
2019-06-26T19:39:54.306Z,81.01
2019-06-26T19:42:26.357Z,82.38
2019-06-26T19:45:00.508Z,82.09
2019-06-26T19:47:33.680Z,82.73
2019-06-26T19:50:07.838Z,82.71
2019-06-26T19:52:40.026Z,83.12
2019-06-26T19:55:12.337Z,83.05
2019-06-26T19:57:44.505Z,83.47
2019-06-26T20:00:16.985Z,83.83
2019-06-26T20:02:49.016Z,84.36
2019-06-26T20:05:22.283Z,84.87
2019-06-26T20:07:54.338Z,86.44
2019-06-26T20:10:26.494Z,87.52
2019-06-26T20:12:58.557Z,87.53
2019-06-26T20:15:30.564Z,88.61
2019-06-26T20:18:04.382Z,89.41
2019-06-26T20:20:37.081Z,90.10
2019-06-26T20:23:11.445Z,90.73
2019-06-26T20:25:43.507Z,90.75
2019-06-26T20:28:15.669Z,90.76
2019-06-26T20:30:49.053Z,91.24
2019-06-26T20:33:21.342Z,92.18
2019-06-26T20:35:53.427Z,93.45
2019-06-26T20:38:25.453Z,93.36
2019-06-26T20:40:57.572Z,93.77
2019-06-26T20:43:29.924Z,92.88
2019-06-26T20:46:04.806Z,92.48
2019-06-26T20:48:37.394Z,92.29
2019-06-26T20:51:11.183Z,92.05
2019-06-26T20:53:43.440Z,92.40
2019-06-26T20:56:15.691Z,92.40
2019-06-26T20:58:47.926Z,91.77
2019-06-26T21:01:20.168Z,91.97
2019-06-26T21:03:53.966Z,92.02
2019-06-26T21:06:26.159Z,92.80
2019-06-26T21:08:58.444Z,92.88
2019-06-26T21:11:30.797Z,93.71
2019-06-26T21:14:03.040Z,94.37
2019-06-26T21:16:38.455Z,94.64
2019-06-26T21:19:10.596Z,94.77
2019-06-26T21:21:43.292Z,94.70
2019-06-26T21:24:15.631Z,95.25
2019-06-26T21:26:47.856Z,95.24
2019-06-26T21:29:20.003Z,95.91
2019-06-26T21:31:53.698Z,97.29
2019-06-26T21:34:26.004Z,96.25
2019-06-26T21:36:58.208Z,96.77
2019-06-26T21:39:30.666Z,97.69
2019-06-26T21:42:04.635Z,98.13
2019-06-26T21:44:36.902Z,98.09
2019-06-26T21:47:09.167Z,98.13
2019-06-26T21:49:41.461Z,97.73
2019-06-26T21:52:13.745Z,97.77
2019-06-26T21:54:46.315Z,98.18
2019-06-26T21:57:37.623Z,98.66
2019-06-26T22:00:28.866Z,98.88
2019-06-26T22:03:19.651Z,99.98
2019-06-26T22:05:55.132Z,100.00
2019-06-26T22:08:46.915Z,100.00
2019-06-26T22:11:20.635Z,100.00
2019-06-26T22:13:52.788Z,100.00
2019-06-26T22:16:25.576Z,100.00
2019-06-26T22:18:57.621Z,100.00
2019-06-26T22:21:32.414Z,100.00
2019-06-26T22:24:05.113Z,100.00
2019-06-26T22:26:37.307Z,100.00
2019-06-26T22:29:09.570Z,100.00
2019-06-26T22:31:41.738Z,100.00
2019-06-26T22:34:15.522Z,100.00
2019-06-26T22:36:51.836Z,100.00
2019-06-26T22:39:21.628Z,100.00
2019-06-26T22:41:53.689Z,100.00
2019-06-26T22:44:25.849Z,100.00
2019-06-26T22:46:57.927Z,100.00
2019-06-26T22:49:31.796Z,100.00
2019-06-26T22:52:06.459Z,100.00
2019-06-26T22:54:38.515Z,100.00
2019-06-26T22:57:14.199Z,100.00
2019-06-26T22:59:52.077Z,100.00
2019-06-26T23:02:27.967Z,100.00
2019-06-26T23:05:00.509Z,100.00
2019-06-26T23:07:33.485Z,100.00
2019-06-26T23:10:10.977Z,100.00
2019-06-26T23:12:44.004Z,100.00
2019-06-26T23:15:22.179Z,100.00
2019-06-26T23:18:02.838Z,100.00
2019-06-26T23:20:36.964Z,100.00
2019-06-26T23:23:14.641Z,100.00
2019-06-26T23:25:47.760Z,100.00
2019-06-26T23:28:20.362Z,100.00
2019-06-26T23:30:52.700Z,100.00
2019-06-26T23:33:25.870Z,100.00
2019-06-26T23:35:58.141Z,100.00
2019-06-26T23:38:30.525Z,100.00
2019-06-26T23:41:03.011Z,100.00
2019-06-26T23:43:38.457Z,100.00
2019-06-26T23:46:13.240Z,100.00
2019-06-26T23:48:45.886Z,100.00
2019-06-26T23:51:18.314Z,100.00
2019-06-26T23:53:50.439Z,100.00
2019-06-26T23:56:39.537Z,100.00
2019-06-26T23:58:58.942Z,100.00
